createdAt,value
2022-11-14T00:01:10.379Z,25.17
2022-11-14T00:03:56.122Z,25.50
2022-11-14T00:06:41.674Z,25.30
2022-11-14T00:09:28.184Z,23.87
2022-11-14T00:12:14.016Z,24.80
2022-11-14T00:14:59.896Z,24.90
2022-11-14T00:17:45.645Z,22.73
2022-11-14T00:20:32.511Z,26.70
2022-11-14T00:23:19.397Z,25.63
2022-11-14T00:26:05.259Z,23.80
2022-11-14T00:28:50.755Z,24.40
2022-11-14T00:31:36.278Z,24.53
2022-11-14T00:34:21.843Z,25.30
2022-11-14T00:37:07.613Z,27.13
2022-11-14T00:39:53.208Z,25.17
2022-11-14T00:42:38.651Z,26.10
2022-11-14T00:45:24.625Z,26.40
2022-11-14T00:48:10.124Z,27.60
2022-11-14T00:50:55.786Z,24.77
2022-11-14T00:53:41.319Z,26.03
2022-11-14T00:56:26.669Z,23.33
2022-11-14T00:59:12.301Z,24.60
2022-11-14T01:01:58.187Z,23.57
2022-11-14T01:04:43.926Z,23.37
2022-11-14T01:07:30.149Z,22.17
2022-11-14T01:10:17.726Z,22.83
2022-11-14T01:13:03.375Z,23.17
2022-11-14T01:15:49.897Z,23.03
2022-11-14T01:18:36.592Z,22.53
2022-11-14T01:21:22.194Z,22.50
2022-11-14T01:24:08.477Z,23.63
2022-11-14T01:26:56.437Z,21.50
2022-11-14T01:29:42.022Z,22.63
2022-11-14T01:32:27.903Z,21.57
2022-11-14T01:35:13.246Z,23.23
2022-11-14T01:37:59.386Z,23.23
2022-11-14T01:40:46.579Z,25.33
2022-11-14T01:43:38.684Z,28.23
2022-11-14T01:46:38.051Z,23.33
2022-11-14T01:49:36.168Z,23.47
2022-11-14T01:52:38.273Z,22.80
2022-11-14T01:55:24.231Z,23.30
2022-11-14T01:58:10.737Z,23.57
2022-11-14T02:00:57.614Z,23.00
2022-11-14T02:03:46.340Z,22.43
2022-11-14T02:06:33.216Z,22.90
2022-11-14T02:09:18.933Z,23.33
2022-11-14T02:12:09.087Z,22.10
2022-11-14T02:14:57.367Z,23.03
2022-11-14T02:17:44.371Z,20.87
2022-11-14T02:20:35.974Z,21.07
2022-11-14T02:23:28.251Z,25.23
2022-11-14T02:26:21.401Z,21.30
2022-11-14T02:29:07.729Z,20.83
2022-11-14T02:31:53.507Z,22.90
2022-11-14T02:34:39.556Z,23.90
2022-11-14T02:37:25.373Z,22.23
2022-11-14T02:40:11.726Z,22.27
2022-11-14T02:42:57.358Z,20.73
2022-11-14T02:45:42.988Z,21.70
2022-11-14T02:48:28.833Z,20.30
2022-11-14T02:51:14.896Z,23.70
2022-11-14T02:54:00.288Z,22.17
2022-11-14T02:56:45.742Z,20.90
2022-11-14T02:59:31.229Z,21.97
2022-11-14T03:02:16.695Z,23.57
2022-11-14T03:05:02.118Z,21.10
2022-11-14T03:07:48.118Z,21.53
2022-11-14T03:10:33.449Z,22.40
2022-11-14T03:13:18.827Z,22.07
2022-11-14T03:16:10.658Z,19.50
2022-11-14T03:18:56.319Z,22.43
2022-11-14T03:21:41.956Z,20.27
2022-11-14T03:24:27.452Z,21.13
2022-11-14T03:27:12.912Z,19.07
2022-11-14T03:29:58.511Z,18.80
2022-11-14T03:32:44.476Z,19.13
2022-11-14T03:35:29.922Z,18.70
2022-11-14T03:38:15.582Z,19.87
2022-11-14T03:41:01.616Z,20.90
2022-11-14T03:43:47.284Z,19.93
2022-11-14T03:46:32.872Z,19.50
2022-11-14T03:49:18.789Z,19.53
2022-11-14T03:52:04.825Z,19.13
2022-11-14T03:54:50.932Z,20.10
2022-11-14T03:57:36.673Z,20.53
2022-11-14T04:00:22.636Z,18.23
2022-11-14T04:03:08.308Z,18.57
2022-11-14T04:05:53.904Z,20.20
2022-11-14T04:08:41.444Z,20.40
2022-11-14T04:11:26.874Z,21.00
2022-11-14T04:14:12.600Z,19.27
2022-11-14T04:16:57.899Z,19.60
2022-11-14T04:19:43.445Z,18.47
2022-11-14T04:22:28.996Z,18.00
2022-11-14T04:25:14.417Z,19.37
2022-11-14T04:28:00.094Z,18.57
2022-11-14T04:30:45.546Z,18.13
2022-11-14T04:33:31.409Z,17.87
2022-11-14T04:36:16.914Z,18.00
2022-11-14T04:39:02.451Z,18.67
2022-11-14T04:41:47.857Z,20.23
2022-11-14T04:44:33.228Z,18.70
2022-11-14T04:47:18.783Z,18.53
2022-11-14T04:50:04.836Z,18.47
2022-11-14T04:52:54.085Z,18.93
2022-11-14T04:55:39.805Z,19.70
2022-11-14T04:58:25.382Z,18.53
2022-11-14T05:01:12.231Z,18.27
2022-11-14T05:03:58.302Z,18.50
2022-11-14T05:06:44.382Z,17.50
2022-11-14T05:09:30.280Z,18.37
2022-11-14T05:12:15.753Z,20.20
2022-11-14T05:15:01.623Z,18.27
2022-11-14T05:17:47.461Z,19.00
2022-11-14T05:20:33.435Z,19.37
2022-11-14T05:23:23.243Z,19.73
2022-11-14T05:26:18.445Z,20.27
2022-11-14T05:29:04.704Z,19.20
2022-11-14T05:31:50.500Z,18.73
2022-11-14T05:34:36.225Z,19.70
2022-11-14T05:37:21.533Z,20.17
2022-11-14T05:40:07.675Z,20.97
2022-11-14T05:42:56.676Z,20.63
2022-11-14T05:45:42.251Z,18.57
2022-11-14T05:48:29.358Z,20.17
2022-11-14T05:51:15.378Z,20.00
2022-11-14T05:54:00.735Z,21.50
2022-11-14T05:56:46.563Z,19.47
2022-11-14T05:59:32.923Z,21.00
2022-11-14T06:02:18.820Z,21.00
2022-11-14T06:05:05.392Z,20.60
2022-11-14T06:07:58.614Z,21.87
2022-11-14T06:10:44.041Z,19.43
2022-11-14T06:13:30.293Z,22.07
2022-11-14T06:16:19.082Z,21.00
2022-11-14T06:19:05.433Z,21.70
2022-11-14T06:21:51.025Z,20.57
2022-11-14T06:24:36.753Z,22.40
2022-11-14T06:27:22.739Z,22.40
2022-11-14T06:30:09.269Z,22.43
2022-11-14T06:33:01.249Z,21.53
2022-11-14T06:35:47.195Z,22.20
2022-11-14T06:38:35.355Z,20.53
2022-11-14T06:41:22.881Z,23.47
2022-11-14T06:44:08.947Z,21.67
2022-11-14T06:46:54.273Z,21.57
2022-11-14T06:49:40.871Z,24.30
2022-11-14T06:52:27.301Z,22.07
2022-11-14T06:55:13.220Z,22.70
2022-11-14T06:57:58.752Z,21.17
2022-11-14T07:00:44.228Z,21.43
2022-11-14T07:03:30.195Z,22.47
2022-11-14T07:06:23.036Z,22.27
2022-11-14T07:09:11.204Z,23.57
2022-11-14T07:11:56.578Z,23.87
2022-11-14T07:14:42.472Z,24.67
2022-11-14T07:17:31.209Z,22.33
2022-11-14T07:20:20.803Z,23.20
2022-11-14T07:23:06.962Z,22.80
2022-11-14T07:25:52.576Z,21.73
2022-11-14T07:28:42.323Z,22.50
2022-11-14T07:31:27.896Z,21.87
2022-11-14T07:34:13.950Z,21.00
2022-11-14T07:36:59.316Z,23.10
2022-11-14T07:39:46.050Z,22.93
2022-11-14T07:42:31.603Z,22.23
2022-11-14T07:45:17.149Z,20.90
2022-11-14T07:48:03.463Z,20.60
2022-11-14T07:50:50.641Z,19.70
2022-11-14T07:53:36.339Z,21.27
2022-11-14T07:56:22.473Z,20.67
2022-11-14T07:59:08.453Z,20.17
2022-11-14T08:01:54.419Z,20.40
2022-11-14T08:04:43.150Z,20.73
2022-11-14T08:07:28.723Z,20.70
2022-11-14T08:10:15.567Z,19.03
2022-11-14T08:13:30.240Z,20.30
2022-11-14T08:16:13.736Z,20.10
2022-11-14T08:19:00.875Z,20.37
2022-11-14T08:21:46.501Z,20.27
2022-11-14T08:24:32.439Z,18.83
2022-11-14T08:27:18.857Z,18.70
2022-11-14T08:30:05.828Z,21.13
2022-11-14T08:32:51.783Z,19.13
2022-11-14T08:35:37.541Z,18.90
2022-11-14T08:38:23.196Z,18.73
2022-11-14T08:41:09.401Z,18.83
2022-11-14T08:43:55.139Z,20.90
2022-11-14T08:46:40.824Z,19.53
2022-11-14T08:49:26.985Z,18.67
2022-11-14T08:52:16.700Z,19.23
2022-11-14T08:55:02.853Z,18.87
2022-11-14T08:57:49.906Z,17.73
2022-11-14T09:00:36.539Z,19.10
2022-11-14T09:03:22.357Z,18.47
2022-11-14T09:06:08.389Z,17.43
2022-11-14T09:08:53.905Z,19.50
2022-11-14T09:11:39.595Z,17.60
2022-11-14T09:14:25.686Z,18.30
2022-11-14T09:17:11.115Z,18.23
2022-11-14T09:19:57.120Z,17.67
2022-11-14T09:22:43.321Z,18.40
2022-11-14T09:25:30.799Z,16.03
2022-11-14T09:28:16.293Z,16.37
2022-11-14T09:31:04.924Z,16.83
2022-11-14T09:33:50.878Z,16.77
2022-11-14T09:36:37.143Z,16.00
2022-11-14T09:39:22.426Z,17.53
2022-11-14T09:42:40.370Z,17.37
2022-11-14T09:45:27.783Z,17.50
2022-11-14T09:48:18.036Z,17.17
2022-11-14T09:51:21.394Z,17.67
2022-11-14T09:54:25.209Z,15.23
2022-11-14T09:57:17.888Z,15.67
2022-11-14T10:00:13.544Z,15.80
2022-11-14T10:03:11.283Z,17.00
2022-11-14T10:06:22.857Z,16.63
2022-11-14T10:09:51.222Z,14.67
2022-11-14T10:12:46.454Z,17.07
2022-11-14T10:15:42.786Z,15.60
2022-11-14T10:19:00.868Z,15.83
2022-11-14T10:22:23.380Z,14.90
2022-11-14T10:25:49.311Z,15.20
2022-11-14T10:29:05.620Z,16.37
2022-11-14T10:32:28.780Z,15.93
2022-11-14T10:35:35.231Z,16.87
2022-11-14T10:38:37.006Z,15.30
2022-11-14T10:41:49.927Z,15.00
2022-11-14T10:44:45.141Z,15.60
2022-11-14T10:47:48.972Z,14.57
2022-11-14T10:50:48.116Z,14.73
2022-11-14T10:53:45.703Z,15.27
2022-11-14T10:56:31.526Z,15.40
2022-11-14T10:59:17.598Z,15.07
2022-11-14T11:02:03.357Z,16.00
2022-11-14T11:04:49.202Z,15.53
2022-11-14T11:08:28.232Z,15.40
2022-11-14T11:11:30.308Z,17.17
2022-11-14T11:14:19.878Z,13.93
2022-11-14T11:17:28.064Z,14.00
2022-11-14T11:20:33.604Z,15.80
2022-11-14T11:23:25.806Z,15.23
2022-11-14T11:26:32.146Z,13.47
2022-11-14T11:29:19.972Z,15.03
2022-11-14T11:32:07.530Z,14.10
2022-11-14T11:34:53.919Z,14.50
2022-11-14T11:37:55.008Z,13.53
2022-11-14T11:40:44.444Z,14.70
2022-11-14T11:43:56.632Z,13.63
2022-11-14T11:46:48.555Z,14.10
2022-11-14T11:49:45.410Z,14.03
2022-11-14T11:52:47.584Z,14.47
2022-11-14T11:55:49.494Z,15.10
2022-11-14T11:58:50.917Z,13.37
2022-11-14T12:01:36.853Z,14.20
2022-11-14T12:04:22.495Z,14.30
2022-11-14T12:07:19.935Z,12.00
2022-11-14T12:10:29.022Z,13.00
2022-11-14T12:13:47.217Z,13.33
2022-11-14T12:17:10.147Z,12.40
2022-11-14T12:20:36.794Z,13.70
2022-11-14T12:23:43.754Z,13.37
2022-11-14T12:26:44.742Z,11.83
2022-11-14T12:30:22.251Z,13.00
2022-11-14T12:33:17.155Z,13.30
2022-11-14T12:36:10.669Z,11.90
2022-11-14T12:38:57.744Z,13.13
2022-11-14T12:41:43.796Z,12.50
2022-11-14T12:44:29.669Z,12.33
2022-11-14T12:47:28.239Z,14.00
2022-11-14T12:50:42.501Z,13.80
2022-11-14T12:53:37.128Z,14.70
2022-11-14T12:56:32.158Z,13.13
2022-11-14T12:59:40.828Z,12.77
2022-11-14T13:02:55.831Z,13.70
2022-11-14T13:06:11.603Z,14.57
2022-11-14T13:09:34.707Z,12.87
2022-11-14T13:12:51.773Z,14.70
2022-11-14T13:16:11.622Z,13.23
2022-11-14T13:19:32.504Z,15.10
2022-11-14T13:22:37.266Z,13.63
2022-11-14T13:25:24.270Z,14.83
2022-11-14T13:28:38.986Z,14.83
2022-11-14T13:31:36.657Z,13.23
2022-11-14T13:34:53.395Z,13.90
2022-11-14T13:38:18.744Z,13.13
2022-11-14T13:41:24.377Z,13.93
2022-11-14T13:44:24.817Z,14.77
2022-11-14T13:47:34.882Z,15.97
2022-11-14T13:50:33.382Z,13.47
2022-11-14T13:53:27.155Z,14.80
2022-11-14T13:56:34.878Z,13.03
2022-11-14T13:59:41.422Z,15.90
2022-11-14T14:02:36.068Z,15.30
2022-11-14T14:05:28.277Z,15.07
2022-11-14T14:08:58.098Z,17.00
2022-11-14T14:12:04.652Z,16.43
2022-11-14T14:15:15.396Z,16.73
2022-11-14T14:18:29.004Z,16.80
2022-11-14T14:21:48.573Z,17.43
2022-11-14T14:24:57.888Z,16.43
2022-11-14T14:27:58.026Z,18.77
2022-11-14T14:31:11.445Z,17.73
2022-11-14T14:33:57.268Z,18.60
2022-11-14T14:36:52.957Z,18.60
2022-11-14T14:39:38.798Z,17.70
2022-11-14T14:42:29.450Z,19.60
2022-11-14T14:45:21.506Z,18.43
2022-11-14T14:48:18.592Z,19.83
2022-11-14T14:51:05.864Z,20.03
2022-11-14T14:53:53.970Z,20.00
2022-11-14T14:56:40.264Z,18.10
2022-11-14T14:59:29.400Z,20.20
2022-11-14T15:02:17.956Z,20.73
2022-11-14T15:05:05.706Z,21.13
2022-11-14T15:07:57.463Z,19.43
2022-11-14T15:10:43.832Z,17.73
2022-11-14T15:13:31.387Z,19.03
2022-11-14T15:16:17.156Z,19.70
2022-11-14T15:19:04.099Z,20.00
2022-11-14T15:22:24.582Z,19.93
2022-11-14T15:25:13.346Z,19.33
2022-11-14T15:28:00.448Z,20.17
2022-11-14T15:31:04.447Z,21.23
2022-11-14T15:34:19.718Z,20.27
2022-11-14T15:37:21.724Z,21.30
2022-11-14T15:40:19.553Z,22.83
2022-11-14T15:43:49.380Z,23.27
2022-11-14T15:46:35.392Z,22.33
2022-11-14T15:49:24.334Z,21.27
2022-11-14T15:52:35.428Z,23.50
2022-11-14T15:55:24.317Z,23.53
2022-11-14T15:58:28.715Z,25.20
2022-11-14T16:01:27.459Z,24.03
2022-11-14T16:04:23.474Z,22.87
2022-11-14T16:07:17.242Z,24.57
2022-11-14T16:10:03.690Z,25.67
2022-11-14T16:12:52.433Z,25.33
2022-11-14T16:15:38.955Z,26.07
2022-11-14T16:18:24.568Z,25.50
2022-11-14T16:21:16.442Z,27.97
2022-11-14T16:24:02.139Z,27.83
2022-11-14T16:26:49.004Z,26.03
2022-11-14T16:29:34.836Z,25.80
2022-11-14T16:32:20.976Z,25.97
2022-11-14T16:35:13.485Z,26.77
2022-11-14T16:37:59.219Z,27.70
2022-11-14T16:40:45.369Z,27.40
2022-11-14T16:43:31.376Z,29.20
2022-11-14T16:46:17.375Z,29.70
2022-11-14T16:49:02.961Z,30.80
2022-11-14T16:51:50.596Z,32.53
2022-11-14T16:54:37.113Z,29.33
2022-11-14T16:57:23.191Z,30.20
2022-11-14T17:00:12.626Z,27.60
2022-11-14T17:02:58.392Z,29.80
2022-11-14T17:05:46.470Z,29.90
2022-11-14T17:08:32.346Z,30.90
2022-11-14T17:11:18.332Z,31.20
2022-11-14T17:14:03.965Z,30.07
2022-11-14T17:16:49.364Z,29.50
2022-11-14T17:19:34.923Z,31.40
2022-11-14T17:22:20.569Z,30.70
2022-11-14T17:25:06.658Z,31.60
2022-11-14T17:27:52.502Z,29.20
2022-11-14T17:30:42.668Z,30.60
2022-11-14T17:33:29.149Z,31.67
2022-11-14T17:36:15.258Z,30.07
2022-11-14T17:39:01.417Z,30.33
2022-11-14T17:41:47.548Z,31.83
2022-11-14T17:44:33.638Z,32.90
2022-11-14T17:47:20.616Z,33.63
2022-11-14T17:50:06.881Z,32.00
2022-11-14T17:52:52.954Z,31.47
2022-11-14T17:55:38.807Z,33.00
2022-11-14T17:58:25.002Z,30.47
2022-11-14T18:01:16.597Z,31.83
2022-11-14T18:04:06.095Z,33.57
2022-11-14T18:06:53.386Z,34.30
2022-11-14T18:09:42.181Z,33.03
2022-11-14T18:12:28.296Z,37.07
2022-11-14T18:15:15.188Z,32.70
2022-11-14T18:18:01.376Z,33.83
2022-11-14T18:20:47.435Z,34.83
2022-11-14T18:23:33.362Z,32.93
2022-11-14T18:26:21.689Z,35.10
2022-11-14T18:29:07.805Z,34.83
2022-11-14T18:31:53.307Z,37.10
2022-11-14T18:34:40.838Z,37.97
2022-11-14T18:37:26.364Z,38.20
2022-11-14T18:40:16.515Z,44.33
2022-11-14T18:43:02.506Z,39.30
2022-11-14T18:45:48.555Z,37.37
2022-11-14T18:48:36.190Z,41.10
2022-11-14T18:51:26.457Z,39.40
2022-11-14T18:54:15.854Z,37.23
2022-11-14T18:57:01.854Z,36.67
2022-11-14T18:59:47.699Z,38.27
2022-11-14T19:02:33.237Z,36.23
2022-11-14T19:05:19.277Z,36.13
2022-11-14T19:08:07.356Z,36.27
2022-11-14T19:10:53.015Z,35.47
2022-11-14T19:13:38.705Z,39.50
2022-11-14T19:16:24.428Z,40.30
2022-11-14T19:19:11.013Z,43.10
2022-11-14T19:21:56.997Z,43.50
2022-11-14T19:24:43.230Z,41.27
2022-11-14T19:27:29.005Z,40.03
2022-11-14T19:30:16.955Z,40.80
2022-11-14T19:33:04.833Z,45.83
2022-11-14T19:35:50.782Z,40.90
2022-11-14T19:38:36.354Z,41.20
2022-11-14T19:41:27.543Z,43.33
2022-11-14T19:44:13.085Z,41.77
2022-11-14T19:46:58.919Z,44.57
2022-11-14T19:49:44.342Z,67.70
2022-11-14T19:52:29.896Z,44.83
2022-11-14T19:55:15.708Z,44.87
2022-11-14T19:58:01.211Z,47.37
2022-11-14T20:00:46.785Z,47.10
2022-11-14T20:03:32.824Z,49.60
2022-11-14T20:06:34.379Z,49.67
2022-11-14T20:09:20.120Z,47.67
2022-11-14T20:12:05.958Z,47.60
2022-11-14T20:14:51.702Z,48.33
2022-11-14T20:17:37.337Z,49.40
2022-11-14T20:20:22.917Z,46.47
2022-11-14T20:23:09.921Z,47.77
2022-11-14T20:25:55.785Z,46.40
2022-11-14T20:28:44.587Z,44.97
2022-11-14T20:31:31.606Z,47.60
2022-11-14T20:34:17.419Z,48.87
2022-11-14T20:37:11.659Z,46.93
2022-11-14T20:39:57.965Z,47.97
2022-11-14T20:42:49.171Z,46.00
2022-11-14T20:45:35.879Z,45.93
2022-11-14T20:48:21.657Z,44.70
2022-11-14T20:51:12.636Z,47.87
2022-11-14T20:53:58.721Z,47.17
2022-11-14T20:56:44.346Z,45.17
2022-11-14T20:59:30.539Z,48.20
2022-11-14T21:02:16.412Z,47.40
2022-11-14T21:05:02.698Z,45.87
2022-11-14T21:07:48.624Z,45.90
2022-11-14T21:10:45.601Z,45.67
2022-11-14T21:13:56.098Z,47.10
2022-11-14T21:16:42.163Z,46.23
2022-11-14T21:19:29.369Z,44.50
2022-11-14T21:22:15.632Z,48.37
2022-11-14T21:25:01.920Z,43.30
2022-11-14T21:27:47.590Z,46.57
2022-11-14T21:30:34.703Z,42.23
2022-11-14T21:33:20.290Z,40.73
2022-11-14T21:36:30.102Z,46.93
2022-11-14T21:39:16.823Z,47.27
2022-11-14T21:42:03.203Z,47.60
2022-11-14T21:44:48.657Z,46.60
2022-11-14T21:47:34.854Z,45.23
2022-11-14T21:50:20.439Z,43.47
2022-11-14T21:53:15.876Z,42.53
2022-11-14T21:56:27.862Z,46.67
2022-11-14T21:59:18.779Z,46.97
2022-11-14T22:02:23.585Z,46.80
2022-11-14T22:05:09.126Z,46.17
2022-11-14T22:07:54.676Z,45.60
2022-11-14T22:10:40.709Z,45.83
2022-11-14T22:13:26.226Z,41.77
2022-11-14T22:16:12.134Z,44.10
2022-11-14T22:19:04.569Z,45.17
2022-11-14T22:21:50.912Z,42.93
2022-11-14T22:24:36.921Z,44.03
2022-11-14T22:27:22.528Z,42.20
2022-11-14T22:30:08.781Z,43.33
2022-11-14T22:32:54.422Z,42.00
2022-11-14T22:35:40.036Z,40.00
2022-11-14T22:38:28.765Z,43.50
2022-11-14T22:41:19.277Z,44.27
2022-11-14T22:44:05.239Z,45.57
2022-11-14T22:46:50.703Z,40.87
2022-11-14T22:49:36.135Z,41.60
2022-11-14T22:52:21.551Z,41.80
2022-11-14T22:55:07.382Z,40.00
2022-11-14T22:57:53.037Z,41.93
2022-11-14T23:00:38.685Z,44.40
2022-11-14T23:03:49.298Z,44.87
2022-11-14T23:06:35.482Z,41.80
2022-11-14T23:09:21.471Z,42.00
2022-11-14T23:12:07.716Z,45.10
2022-11-14T23:14:53.595Z,46.10
2022-11-14T23:17:39.228Z,45.30
2022-11-14T23:20:24.638Z,41.77
2022-11-14T23:23:10.299Z,44.20
2022-11-14T23:25:56.099Z,45.27
2022-11-14T23:28:41.483Z,43.17
2022-11-14T23:31:27.265Z,42.80
2022-11-14T23:34:12.880Z,42.70
2022-11-14T23:36:58.252Z,41.77
2022-11-14T23:39:43.767Z,42.40
2022-11-14T23:42:29.117Z,45.00
2022-11-14T23:45:14.570Z,42.60
2022-11-14T23:47:59.975Z,43.00
2022-11-14T23:50:49.820Z,41.70
2022-11-14T23:53:35.566Z,40.50
2022-11-14T23:56:20.943Z,37.90
2022-11-14T23:59:06.351Z,40.20
